Manitou Springs, Colorado
Current Conditions -  °F | °C
As of 10:09 PM on Tuesday 25 Nov 2014 (Local Time) from KCWN Reporting Station
Clear Clear  
Wind Chill: 33°   Ceiling: Unl
Heat Index: 41°   Visibility: 10mi
Dew Point: 18°   Wind: 14mph
Humidity: 39%   Direction: 210°SSW
Pressure: 29.97"   Gusts: 24mph
Location:  38.86°N, 104.92°W
Report Text: KCWN 260509Z AUTO 21012G21KT 150V270 10SM CLR 05/M08 A2997 RMK AO2 WSHFT 07
Loading
Personal Weather Stations






























Interactive Weather Map New forecast layout! Learn more

10-Day Weather Forecast

Advertisements
Track Severe Weather on mobile